createdAt,value
2018-05-14T00:03:00.746Z,16.11
2018-05-14T00:07:04.506Z,16.06
2018-05-14T00:08:32.512Z,15.98
2018-05-14T00:10:39.086Z,15.96
2018-05-14T00:13:29.711Z,15.96
2018-05-14T00:14:07.068Z,15.93
2018-05-14T00:15:07.164Z,15.93
2018-05-14T00:16:14.217Z,15.85
2018-05-14T00:18:41.463Z,15.95
2018-05-14T00:19:41.469Z,15.89
2018-05-14T00:21:00.471Z,15.84
2018-05-14T00:21:39.089Z,15.80
2018-05-14T00:25:43.074Z,15.81
2018-05-14T00:26:45.083Z,15.84
2018-05-14T00:27:42.557Z,15.80
2018-05-14T00:28:42.657Z,15.76
2018-05-14T00:29:43.582Z,15.77
2018-05-14T00:34:06.659Z,15.86
2018-05-14T00:35:06.747Z,15.84
2018-05-14T00:39:03.448Z,15.80
2018-05-14T00:39:55.460Z,15.74
2018-05-14T00:40:55.389Z,15.77
2018-05-14T00:43:21.176Z,15.71
2018-05-14T00:45:52.681Z,15.60
2018-05-14T00:46:54.693Z,15.53
2018-05-14T00:49:45.331Z,15.46
2018-05-14T00:50:23.693Z,15.40
2018-05-14T00:51:23.799Z,15.35
2018-05-14T00:52:30.839Z,15.40
2018-05-14T00:57:58.679Z,15.28
2018-05-14T01:02:24.315Z,15.33
2018-05-14T01:04:35.871Z,15.20
2018-05-14T01:08:44.784Z,15.13
2018-05-14T01:09:36.281Z,15.16
2018-05-14T01:12:10.550Z,15.19
2018-05-14T01:13:28.880Z,15.05
2018-05-14T01:14:08.556Z,15.05
2018-05-14T01:16:40.185Z,14.97
2018-05-14T01:17:40.192Z,15.03
2018-05-14T01:19:07.193Z,14.98
2018-05-14T01:21:32.249Z,15.01
2018-05-14T01:22:33.401Z,14.98
2018-05-14T01:24:43.537Z,14.94
2018-05-14T01:27:21.029Z,14.87
2018-05-14T01:28:35.488Z,14.82
2018-05-14T01:29:14.613Z,14.85
2018-05-14T01:30:21.537Z,14.74
2018-05-14T01:32:46.194Z,14.83
2018-05-14T01:33:52.919Z,14.78
2018-05-14T01:36:19.050Z,14.71
2018-05-14T01:38:52.552Z,14.67
2018-05-14T01:39:56.558Z,14.63
2018-05-14T01:42:43.187Z,14.67
2018-05-14T01:49:49.010Z,14.61
2018-05-14T01:53:30.250Z,14.45
2018-05-14T01:56:02.512Z,14.48
2018-05-14T02:00:27.371Z,14.42
2018-05-14T02:04:14.450Z,14.31
2018-05-14T02:06:45.953Z,14.31
2018-05-14T02:07:39.953Z,14.29
2018-05-14T02:08:41.951Z,14.30
2018-05-14T02:10:00.530Z,14.19
2018-05-14T02:11:05.883Z,14.20
2018-05-14T02:11:42.446Z,14.20
2018-05-14T02:12:39.956Z,14.27
2018-05-14T02:20:00.517Z,14.17
2018-05-14T02:21:07.528Z,14.11
2018-05-14T02:26:27.984Z,14.19
2018-05-14T02:27:35.051Z,14.04
2018-05-14T02:31:45.151Z,13.99
2018-05-14T02:32:26.161Z,14.01
2018-05-14T02:33:31.097Z,13.99
2018-05-14T02:34:43.621Z,14.11
2018-05-14T02:37:09.989Z,14.02
2018-05-14T02:39:16.443Z,14.04
2018-05-14T02:39:55.548Z,13.98
2018-05-14T02:44:01.235Z,14.05
2018-05-14T02:44:59.174Z,13.98
2018-05-14T02:46:20.244Z,13.94
2018-05-14T02:46:58.746Z,13.83
2018-05-14T02:49:36.998Z,13.91
2018-05-14T02:50:31.005Z,13.94
2018-05-14T02:54:34.485Z,13.73
2018-05-14T03:03:33.896Z,13.63
2018-05-14T03:04:25.963Z,13.61
2018-05-14T03:07:10.613Z,13.61
2018-05-14T03:07:57.622Z,13.61
2018-05-14T03:09:04.078Z,13.57
2018-05-14T03:12:48.783Z,13.50
2018-05-14T03:13:48.788Z,13.53
2018-05-14T03:16:18.205Z,13.47
2018-05-14T03:19:10.702Z,13.51
2018-05-14T03:19:56.465Z,13.48
2018-05-14T03:23:52.808Z,13.53
2018-05-14T03:25:00.501Z,13.44
2018-05-14T03:26:00.481Z,13.43
2018-05-14T03:26:53.106Z,13.44
2018-05-14T03:27:53.215Z,13.51
2018-05-14T03:29:14.285Z,13.44
2018-05-14T03:31:24.834Z,13.44
2018-05-14T03:32:54.467Z,13.41
2018-05-14T03:33:53.039Z,13.44
2018-05-14T03:37:28.716Z,13.39
2018-05-14T03:38:35.719Z,13.36
2018-05-14T03:44:03.225Z,13.31
2018-05-14T03:45:26.232Z,13.44
2018-05-14T03:49:07.755Z,13.35
2018-05-14T03:50:09.251Z,13.36
2018-05-14T03:51:05.849Z,13.35
2018-05-14T03:52:29.807Z,13.39
2018-05-14T03:53:12.795Z,13.32
2018-05-14T03:55:38.317Z,13.31
2018-05-14T03:58:32.810Z,13.39
2018-05-14T03:59:09.825Z,13.41
2018-05-14T04:03:34.805Z,13.44
2018-05-14T04:04:26.873Z,13.44
2018-05-14T04:08:15.547Z,13.46
2018-05-14T04:10:53.831Z,13.44
2018-05-14T04:11:47.185Z,13.44
2018-05-14T04:12:53.857Z,13.44
2018-05-14T04:15:19.577Z,13.47
2018-05-14T04:17:53.202Z,13.62
2018-05-14T04:18:56.643Z,13.59
2018-05-14T04:19:59.640Z,13.57
2018-05-14T04:20:53.710Z,13.63
2018-05-14T04:22:09.168Z,13.59
2018-05-14T04:24:37.171Z,13.63
2018-05-14T04:26:24.658Z,13.68
2018-05-14T04:28:54.912Z,13.62
2018-05-14T04:36:22.373Z,13.73
2018-05-14T04:37:04.372Z,13.69
2018-05-14T04:39:32.261Z,13.71
2018-05-14T04:42:10.504Z,13.84
2018-05-14T04:43:03.853Z,13.86
2018-05-14T04:44:03.949Z,13.81
2018-05-14T04:45:07.012Z,13.83
2018-05-14T04:46:07.012Z,13.83
2018-05-14T04:48:35.745Z,13.86
2018-05-14T04:51:10.488Z,13.86
2018-05-14T04:52:08.496Z,13.93
2018-05-14T04:53:08.491Z,13.87
2018-05-14T04:55:40.237Z,13.91
2018-05-14T04:56:42.184Z,13.90
2018-05-14T04:57:45.677Z,13.96
2018-05-14T05:00:32.954Z,13.93
2018-05-14T05:01:38.961Z,14.04
2018-05-14T05:02:11.441Z,14.08
2018-05-14T05:03:11.560Z,14.11
2018-05-14T05:04:39.460Z,14.05
2018-05-14T05:07:04.237Z,14.06
2018-05-14T05:07:43.346Z,14.13
2018-05-14T05:11:52.013Z,14.26
2018-05-14T05:14:39.224Z,14.31
2018-05-14T05:16:50.476Z,14.46
2018-05-14T05:21:59.563Z,14.56
2018-05-14T05:24:45.312Z,14.66
2018-05-14T05:27:02.587Z,14.69
2018-05-14T05:29:30.096Z,14.79
2018-05-14T05:30:30.104Z,14.78
2018-05-14T05:31:27.583Z,14.87
2018-05-14T05:34:20.147Z,15.03
2018-05-14T05:34:59.247Z,15.13
2018-05-14T05:36:20.348Z,15.19
2018-05-14T05:38:30.879Z,15.38
2018-05-14T05:42:40.625Z,15.71
2018-05-14T05:43:33.983Z,15.73
2018-05-14T05:46:12.234Z,15.91
2018-05-14T05:48:57.977Z,15.96
2018-05-14T05:49:39.726Z,15.96
2018-05-14T05:50:51.733Z,15.89
2018-05-14T05:51:38.233Z,15.93
2018-05-14T05:52:40.247Z,15.93
2018-05-14T05:53:37.595Z,16.04
2018-05-14T05:54:38.246Z,16.06
2018-05-14T05:57:30.244Z,16.26
2018-05-14T05:58:09.346Z,16.30
2018-05-14T06:02:41.101Z,16.40
2018-05-14T06:03:42.099Z,16.57
2018-05-14T06:06:19.428Z,16.80
2018-05-14T06:07:40.425Z,16.84
2018-05-14T06:08:33.900Z,16.95
2018-05-14T06:10:59.158Z,17.10
2018-05-14T06:13:15.982Z,17.43
2018-05-14T06:14:16.081Z,17.46
2018-05-14T06:16:47.610Z,17.79
2018-05-14T06:17:47.709Z,17.76
2018-05-14T06:19:02.343Z,17.89
2018-05-14T06:19:48.844Z,18.07
2018-05-14T06:21:02.852Z,18.04
2018-05-14T06:21:48.194Z,18.23
2018-05-14T06:22:48.844Z,18.21
2018-05-14T06:24:12.296Z,18.29
2018-05-14T06:24:49.374Z,18.53
2018-05-14T06:26:03.344Z,18.50
2018-05-14T06:26:48.696Z,18.54
2018-05-14T06:27:49.393Z,18.71
2018-05-14T06:28:49.851Z,18.78
2018-05-14T06:29:49.845Z,18.79
2018-05-14T06:30:49.843Z,18.84
2018-05-14T06:32:03.851Z,18.86
2018-05-14T06:33:12.814Z,18.87
2018-05-14T06:33:49.536Z,18.90
2018-05-14T06:34:51.810Z,18.89
2018-05-14T06:35:50.449Z,18.87
2018-05-14T06:36:49.945Z,18.91
2018-05-14T06:37:52.324Z,18.89
2018-05-14T06:40:22.320Z,19.06
2018-05-14T06:42:54.319Z,19.24
2018-05-14T06:43:53.668Z,19.27
2018-05-14T06:44:56.333Z,19.24
2018-05-14T06:45:54.824Z,19.42
2018-05-14T06:48:26.208Z,19.35
2018-05-14T06:49:26.214Z,19.30
2018-05-14T06:50:26.215Z,19.43
2018-05-14T06:51:30.670Z,19.52
2018-05-14T06:54:04.055Z,19.52
2018-05-14T06:54:58.061Z,19.55
2018-05-14T06:55:58.062Z,19.49
2018-05-14T06:56:58.566Z,19.49
2018-05-14T06:57:58.495Z,19.49
2018-05-14T06:58:58.562Z,19.52
2018-05-14T06:59:58.559Z,19.45
2018-05-14T07:04:22.776Z,19.64
2018-05-14T07:05:01.136Z,19.58
2018-05-14T07:06:22.780Z,19.68
2018-05-14T07:07:08.280Z,19.64
2018-05-14T07:08:04.279Z,19.67
2018-05-14T07:11:00.778Z,19.47
2018-05-14T07:11:39.814Z,19.46
2018-05-14T07:12:54.791Z,19.30
2018-05-14T07:13:40.292Z,19.24
2018-05-14T07:14:55.335Z,19.10
2018-05-14T07:15:41.494Z,19.01
2018-05-14T07:18:26.795Z,19.15
2018-05-14T07:19:26.798Z,19.12
2018-05-14T07:20:26.800Z,19.25
2018-05-14T07:21:27.309Z,19.40
2018-05-14T07:22:28.755Z,19.53
2018-05-14T07:23:27.300Z,19.65
2018-05-14T07:24:06.299Z,19.75
2018-05-14T07:25:05.920Z,19.79
2018-05-14T07:26:20.801Z,19.95
2018-05-14T07:27:06.805Z,19.79
2018-05-14T07:28:27.812Z,19.97
2018-05-14T07:29:07.300Z,20.12
2018-05-14T07:30:07.318Z,20.10
2018-05-14T07:31:21.301Z,20.31
2018-05-14T07:32:13.299Z,20.38
2018-05-14T07:34:39.068Z,20.48
2018-05-14T07:35:39.069Z,20.57
2018-05-14T07:36:39.069Z,20.75
2018-05-14T07:37:40.499Z,20.72
2018-05-14T07:38:53.567Z,20.94
2018-05-14T07:39:39.567Z,20.97
2018-05-14T07:40:39.571Z,21.06
2018-05-14T07:43:11.339Z,21.38
2018-05-14T07:44:32.346Z,21.51
2018-05-14T07:45:11.342Z,21.58
2018-05-14T07:47:44.549Z,21.83
2018-05-14T07:48:43.115Z,21.91
2018-05-14T07:49:43.114Z,22.12
2018-05-14T07:50:57.626Z,22.09
2018-05-14T07:52:04.620Z,22.24
2018-05-14T07:52:43.642Z,22.11
2018-05-14T07:55:15.782Z,22.20
2018-05-14T07:56:15.790Z,22.30
2018-05-14T07:57:15.793Z,22.30
2018-05-14T07:58:43.290Z,22.23
2018-05-14T07:59:16.297Z,22.36
2018-05-14T08:00:16.381Z,22.52
2018-05-14T08:01:15.768Z,22.46
2018-05-14T08:02:18.800Z,22.54
2018-05-14T08:03:37.015Z,22.54
2018-05-14T08:04:43.794Z,22.74
2018-05-14T08:05:16.274Z,22.75
2018-05-14T08:07:48.621Z,22.94
2018-05-14T08:08:48.539Z,22.76
2018-05-14T08:09:48.539Z,22.75
2018-05-14T08:11:03.034Z,22.76
2018-05-14T08:12:09.247Z,22.63
2018-05-14T08:12:55.041Z,22.59
2018-05-14T08:13:49.242Z,22.81
2018-05-14T08:14:52.509Z,22.69
2018-05-14T08:15:49.546Z,22.63
2018-05-14T08:17:09.901Z,22.63
2018-05-14T08:17:49.535Z,22.74
2018-05-14T08:20:22.782Z,22.84
2018-05-14T08:21:43.805Z,22.86
2018-05-14T08:22:21.807Z,23.09
2018-05-14T08:23:21.036Z,23.11
2018-05-14T08:24:21.145Z,23.11
2018-05-14T08:25:21.807Z,23.03
2018-05-14T08:26:21.531Z,23.09
2018-05-14T08:27:43.305Z,23.07
2018-05-14T08:28:22.767Z,23.11
2018-05-14T08:29:22.315Z,23.12
2018-05-14T08:30:43.811Z,23.23
2018-05-14T08:31:51.810Z,23.12
2018-05-14T08:32:22.162Z,23.03
2018-05-14T08:36:25.703Z,23.19
2018-05-14T08:37:26.399Z,23.29
2018-05-14T08:38:26.432Z,23.41
2018-05-14T08:39:28.900Z,23.39
2018-05-14T08:40:26.900Z,23.39
2018-05-14T08:41:32.900Z,23.39
2018-05-14T08:42:26.902Z,23.47
2018-05-14T08:43:41.736Z,23.42
2018-05-14T08:44:27.758Z,23.62
2018-05-14T08:46:58.996Z,23.72
2018-05-14T08:48:19.917Z,23.68
2018-05-14T08:48:58.920Z,23.62
2018-05-14T08:51:30.686Z,23.62
2018-05-14T08:52:30.061Z,23.63
2018-05-14T08:53:30.696Z,23.75
2018-05-14T08:57:54.964Z,23.89
2018-05-14T08:58:33.980Z,23.90
2018-05-14T08:59:36.407Z,23.93
2018-05-14T09:00:33.570Z,24.02
2018-05-14T09:01:33.672Z,24.05
2018-05-14T09:02:40.483Z,24.19
2018-05-14T09:03:55.485Z,24.18
2018-05-14T09:04:35.908Z,24.34
2018-05-14T09:07:27.231Z,24.37
2018-05-14T09:08:06.231Z,24.41
2018-05-14T09:09:27.733Z,24.36
2018-05-14T09:10:08.733Z,24.51
2018-05-14T09:11:12.734Z,24.60
2018-05-14T09:12:07.665Z,24.67
2018-05-14T09:15:58.813Z,24.61
2018-05-14T09:16:38.488Z,24.66
2018-05-14T09:17:39.418Z,24.71
2018-05-14T09:18:59.992Z,24.84
2018-05-14T09:19:39.196Z,24.98
2018-05-14T09:20:40.421Z,25.04
2018-05-14T09:21:59.427Z,25.14
2018-05-14T09:22:45.489Z,25.29
2018-05-14T09:25:10.756Z,25.34
2018-05-14T09:26:10.122Z,25.27
2018-05-14T09:27:10.763Z,25.31
2018-05-14T09:29:44.524Z,25.04
2018-05-14T09:31:02.863Z,24.99
2018-05-14T09:31:42.003Z,25.16
2018-05-14T09:32:57.034Z,25.14
2018-05-14T09:34:04.037Z,24.94
2018-05-14T09:34:45.032Z,25.02
2018-05-14T09:36:03.635Z,25.07
2018-05-14T09:38:35.797Z,25.16
2018-05-14T09:39:21.822Z,25.29
2018-05-14T09:40:35.795Z,25.41
2018-05-14T09:41:14.401Z,25.53
2018-05-14T09:42:36.310Z,25.61
2018-05-14T09:43:23.229Z,25.67
2018-05-14T09:44:21.300Z,25.67
2018-05-14T09:46:47.050Z,25.75
2018-05-14T09:47:47.060Z,25.76
2018-05-14T09:50:56.836Z,25.93
2018-05-14T09:51:50.841Z,26.13
2018-05-14T09:53:12.337Z,25.90
2018-05-14T09:54:12.338Z,25.67
2018-05-14T09:55:12.335Z,25.74
2018-05-14T09:55:51.343Z,25.79
2018-05-14T09:57:12.008Z,25.61
2018-05-14T09:59:23.521Z,25.57
2018-05-14T10:00:23.532Z,25.74
2018-05-14T10:01:25.529Z,25.67
2018-05-14T10:02:44.126Z,25.67
2018-05-14T10:03:24.029Z,25.76
2018-05-14T10:04:44.390Z,25.81
2018-05-14T10:07:29.716Z,25.78
2018-05-14T10:08:32.144Z,25.74
2018-05-14T10:09:44.211Z,25.79
2018-05-14T10:10:30.210Z,25.81
2018-05-14T10:11:30.213Z,25.93
2018-05-14T10:12:31.645Z,25.83
2018-05-14T10:13:51.716Z,25.89
2018-05-14T10:14:32.152Z,26.04
2018-05-14T10:15:32.712Z,26.17
2018-05-14T10:18:01.798Z,26.28
2018-05-14T10:19:02.488Z,26.20
2018-05-14T10:20:23.493Z,26.32
2018-05-14T10:21:02.992Z,26.41
2018-05-14T10:22:23.214Z,26.34
2018-05-14T10:23:23.297Z,26.50
2018-05-14T10:25:55.576Z,26.65
2018-05-14T10:27:01.583Z,26.71
2018-05-14T10:27:34.583Z,26.66
2018-05-14T10:28:41.091Z,26.60
2018-05-14T10:29:35.089Z,26.59
2018-05-14T10:32:06.167Z,26.61
2018-05-14T10:33:20.615Z,26.56
2018-05-14T10:34:28.124Z,26.57
2018-05-14T10:35:07.127Z,26.60
2018-05-14T10:36:07.114Z,26.64
2018-05-14T10:37:28.115Z,26.60
2018-05-14T10:38:28.615Z,26.61
2018-05-14T10:39:08.573Z,26.61
2018-05-14T10:40:28.616Z,26.60
2018-05-14T10:41:07.099Z,26.47
2018-05-14T10:42:29.165Z,26.68
2018-05-14T10:43:10.122Z,26.64
2018-05-14T10:44:08.113Z,26.51
2018-05-14T10:45:07.621Z,26.27
2018-05-14T10:46:08.616Z,26.28
2018-05-14T10:47:08.618Z,26.23
2018-05-14T10:48:08.616Z,26.50
2018-05-14T10:49:08.621Z,26.47
2018-05-14T10:51:40.392Z,26.64
2018-05-14T10:52:40.398Z,26.83
2018-05-14T10:53:54.906Z,26.79
2018-05-14T10:55:01.913Z,26.75
2018-05-14T10:55:40.898Z,26.76
2018-05-14T10:57:01.906Z,26.73
2018-05-14T10:57:40.513Z,26.88
2018-05-14T10:58:43.439Z,27.01
2018-05-14T10:59:41.396Z,27.08
2018-05-14T11:00:47.830Z,27.11
2018-05-14T11:03:12.471Z,27.09
2018-05-14T11:04:13.181Z,26.97
2018-05-14T11:05:13.180Z,27.05
2018-05-14T11:06:12.782Z,27.09
2018-05-14T11:09:28.616Z,27.08
2018-05-14T11:11:22.096Z,27.08
2018-05-14T11:12:21.453Z,27.23
2018-05-14T11:13:22.081Z,27.24
2018-05-14T11:14:22.580Z,27.16
2018-05-14T11:15:22.579Z,27.28
2018-05-14T11:16:22.580Z,27.33
2018-05-14T11:17:22.586Z,27.43
2018-05-14T11:18:29.093Z,27.43
2018-05-14T11:19:23.080Z,27.53
2018-05-14T11:20:23.087Z,27.59
2018-05-14T11:21:23.083Z,27.59
2018-05-14T11:22:43.730Z,27.74
2018-05-14T11:23:23.585Z,27.63
2018-05-14T11:24:23.587Z,27.50
2018-05-14T11:25:23.585Z,27.46
2018-05-14T11:26:24.089Z,27.49
2018-05-14T11:27:24.088Z,27.59
2018-05-14T11:28:24.081Z,27.42
2018-05-14T11:29:24.111Z,27.39
2018-05-14T11:31:55.672Z,27.35
2018-05-14T11:32:58.851Z,27.33
2018-05-14T11:33:56.865Z,27.43
2018-05-14T11:34:58.877Z,27.49
2018-05-14T11:36:17.870Z,27.61
2018-05-14T11:38:29.047Z,27.68
2018-05-14T11:39:30.045Z,27.62
2018-05-14T11:40:28.543Z,27.66
2018-05-14T11:41:31.536Z,27.80
2018-05-14T11:42:28.798Z,28.01
2018-05-14T11:43:29.534Z,28.08
2018-05-14T11:44:29.009Z,28.20
2018-05-14T11:45:44.048Z,28.28
2018-05-14T11:46:29.284Z,28.25
2018-05-14T11:47:30.040Z,28.39
2018-05-14T11:48:30.037Z,28.43
2018-05-14T11:49:36.611Z,28.64
2018-05-14T11:50:57.531Z,28.83
2018-05-14T11:51:29.896Z,28.82
2018-05-14T11:52:29.996Z,28.95
2018-05-14T11:53:51.104Z,29.11
2018-05-14T11:54:31.041Z,29.05
2018-05-14T11:55:45.039Z,29.21
2018-05-14T11:56:37.073Z,29.23
2018-05-14T11:57:33.972Z,29.33
2018-05-14T11:58:51.622Z,29.69
2018-05-14T11:59:31.567Z,29.82
2018-05-14T12:00:34.536Z,29.89
2018-05-14T12:01:37.542Z,29.95
2018-05-14T12:02:45.598Z,29.89
2018-05-14T12:03:32.032Z,30.04
2018-05-14T12:06:03.361Z,29.97
2018-05-14T12:07:25.257Z,29.70
2018-05-14T12:08:04.252Z,29.49
2018-05-14T12:10:35.888Z,29.18
2018-05-14T12:11:41.967Z,29.12
2018-05-14T12:12:35.898Z,29.55
2018-05-14T12:15:07.672Z,30.21
2018-05-14T12:16:07.722Z,30.60
2018-05-14T12:17:07.680Z,30.61
2018-05-14T12:18:28.274Z,30.76
2018-05-14T12:19:31.182Z,31.00
2018-05-14T12:20:08.185Z,31.05
2018-05-14T12:21:08.187Z,31.16
2018-05-14T12:22:14.679Z,31.47
2018-05-14T12:23:08.701Z,31.47
2018-05-14T12:24:30.682Z,31.49
2018-05-14T12:25:08.680Z,31.62
2018-05-14T12:26:23.181Z,31.64
2018-05-14T12:27:08.414Z,31.37
2018-05-14T12:29:39.963Z,31.41
2018-05-14T12:31:03.180Z,31.20
2018-05-14T12:31:40.696Z,31.25
2018-05-14T12:32:40.308Z,31.15
2018-05-14T12:33:40.416Z,30.93
2018-05-14T12:36:26.693Z,31.05
2018-05-14T12:37:12.714Z,31.49
2018-05-14T12:38:12.700Z,31.79
2018-05-14T12:39:12.314Z,31.91
2018-05-14T12:40:13.203Z,31.88
2018-05-14T12:41:15.200Z,32.22
2018-05-14T12:42:40.710Z,32.36
2018-05-14T12:43:19.700Z,32.36
2018-05-14T12:44:34.702Z,32.76
2018-05-14T12:45:19.702Z,32.72
2018-05-14T12:46:15.666Z,32.83
2018-05-14T12:47:35.202Z,32.95
2018-05-14T12:48:20.199Z,32.84
2018-05-14T12:49:34.547Z,32.84
2018-05-14T12:50:14.203Z,32.66
2018-05-14T12:51:13.815Z,32.12
2018-05-14T12:52:29.331Z,32.02
2018-05-14T12:53:16.701Z,32.25
2018-05-14T12:54:28.703Z,32.03
2018-05-14T12:55:36.223Z,31.99
2018-05-14T12:56:36.201Z,32.19
2018-05-14T12:57:36.200Z,31.94
2018-05-14T12:58:14.708Z,32.40
2018-05-14T12:59:29.701Z,32.77
2018-05-14T13:00:35.920Z,32.98
2018-05-14T13:01:15.038Z,32.95
2018-05-14T13:02:15.723Z,32.99
2018-05-14T13:03:37.339Z,32.83
2018-05-14T13:04:18.161Z,32.81
2018-05-14T13:05:16.205Z,32.35
2018-05-14T13:06:22.201Z,32.41
2018-05-14T13:07:17.633Z,32.13
2018-05-14T13:09:54.136Z,32.25
2018-05-14T13:10:50.144Z,32.76
2018-05-14T13:12:09.144Z,32.80
2018-05-14T13:12:48.645Z,32.93
2018-05-14T13:14:08.885Z,32.77
2018-05-14T13:14:48.642Z,32.78
2018-05-14T13:17:20.303Z,32.59
2018-05-14T13:18:20.308Z,32.53
2018-05-14T13:19:20.810Z,32.76
2018-05-14T13:20:20.809Z,33.14
2018-05-14T13:21:22.819Z,32.90
2018-05-14T13:22:41.849Z,32.77
2018-05-14T13:23:20.816Z,32.46
2018-05-14T13:24:23.309Z,31.97
2018-05-14T13:26:58.728Z,32.77
2018-05-14T13:27:54.160Z,32.81
2018-05-14T13:28:52.727Z,32.83
2018-05-14T13:29:55.234Z,33.03
2018-05-14T13:30:52.474Z,33.24
2018-05-14T13:32:20.660Z,33.49
2018-05-14T13:32:54.700Z,33.28
2018-05-14T13:33:57.160Z,33.06
2018-05-14T13:34:53.733Z,32.76
2018-05-14T13:37:25.324Z,32.93
2018-05-14T13:38:24.678Z,32.31
2018-05-14T13:39:25.312Z,32.61
2018-05-14T13:40:25.819Z,32.87
2018-05-14T13:42:59.264Z,33.37
2018-05-14T13:43:59.124Z,33.44
2018-05-14T13:45:11.267Z,33.71
2018-05-14T13:46:20.201Z,33.53
2018-05-14T13:46:56.973Z,33.66
2018-05-14T13:47:58.775Z,33.70
2018-05-14T13:48:57.384Z,33.74
2018-05-14T13:50:04.268Z,33.86
2018-05-14T13:50:59.284Z,34.16
2018-05-14T13:52:20.265Z,34.01
2018-05-14T13:53:19.157Z,34.21
2018-05-14T13:54:19.776Z,34.11
2018-05-14T13:56:32.130Z,34.53
2018-05-14T13:57:50.656Z,34.49
2018-05-14T13:58:32.694Z,34.33
2018-05-14T13:59:30.781Z,34.28
2018-05-14T14:00:36.691Z,34.11
2018-05-14T14:01:30.696Z,34.37
2018-05-14T14:02:32.649Z,33.92
2018-05-14T14:03:37.192Z,33.65
2018-05-14T14:04:31.198Z,34.08
2018-05-14T14:05:45.189Z,34.08
2018-05-14T14:06:54.691Z,33.63
2018-05-14T14:07:31.692Z,33.55
2018-05-14T14:08:45.697Z,33.05
2018-05-14T14:09:31.698Z,33.20
2018-05-14T14:10:53.192Z,33.40
2018-05-14T14:11:32.266Z,33.68
2018-05-14T14:12:34.207Z,33.41
2018-05-14T14:13:34.696Z,32.95
2018-05-14T14:14:33.177Z,33.43
2018-05-14T14:15:53.692Z,33.72
2018-05-14T14:16:53.691Z,33.72
2018-05-14T14:17:32.691Z,33.53
2018-05-14T14:20:03.797Z,33.72
2018-05-14T14:21:10.516Z,33.59
2018-05-14T14:22:04.515Z,33.74
2018-05-14T14:24:36.307Z,32.46
2018-05-14T14:25:36.327Z,32.50
2018-05-14T14:26:36.320Z,32.77
2018-05-14T14:27:36.812Z,32.76
2018-05-14T14:28:36.815Z,32.27
2018-05-14T14:29:57.248Z,31.04
2018-05-14T14:30:57.818Z,29.99
2018-05-14T14:31:36.431Z,29.51
2018-05-14T14:32:51.309Z,30.36
2018-05-14T14:34:00.312Z,30.59
2018-05-14T14:34:37.316Z,31.04
2018-05-14T14:35:43.899Z,31.12
2018-05-14T14:36:37.059Z,31.57
2018-05-14T14:37:39.813Z,31.97
2018-05-14T14:38:37.815Z,32.12
2018-05-14T14:39:44.313Z,32.35
2018-05-14T14:40:37.575Z,32.03
2018-05-14T14:43:23.860Z,32.62
2018-05-14T14:44:09.231Z,32.44
2018-05-14T14:45:10.827Z,32.62
2018-05-14T14:46:09.474Z,32.34
2018-05-14T14:48:41.777Z,31.92
2018-05-14T14:49:41.764Z,31.88
2018-05-14T14:50:43.695Z,31.45
2018-05-14T14:51:56.277Z,31.52
2018-05-14T14:52:57.695Z,31.50
2018-05-14T14:53:42.263Z,31.78
2018-05-14T14:54:44.269Z,31.85
2018-05-14T14:56:02.869Z,31.45
2018-05-14T14:59:51.633Z,30.78
2018-05-14T15:00:47.636Z,31.25
2018-05-14T15:01:46.140Z,30.19
2018-05-14T15:02:45.397Z,29.64
2018-05-14T15:05:17.718Z,30.13
2018-05-14T15:07:49.252Z,30.60
2018-05-14T15:09:09.600Z,30.57
2018-05-14T15:10:11.281Z,30.72
2018-05-14T15:11:10.260Z,30.70
2018-05-14T15:13:21.052Z,30.83
2018-05-14T15:14:21.048Z,30.51
2018-05-14T15:15:20.537Z,30.73
2018-05-14T15:16:21.480Z,30.72
2018-05-14T15:17:21.546Z,30.53
2018-05-14T15:18:21.548Z,30.54
2018-05-14T15:19:21.064Z,30.53
2018-05-14T15:20:22.047Z,30.63
2018-05-14T15:21:24.045Z,30.53
2018-05-14T15:22:22.048Z,30.63
2018-05-14T15:23:21.538Z,30.76
2018-05-14T15:24:24.555Z,31.00
2018-05-14T15:27:14.984Z,31.01
2018-05-14T15:27:59.424Z,30.96
2018-05-14T15:28:53.992Z,31.05
2018-05-14T15:30:14.591Z,30.38
2018-05-14T15:32:25.895Z,30.45
2018-05-14T15:33:25.962Z,30.15
2018-05-14T15:34:25.902Z,30.22
2018-05-14T15:35:25.899Z,30.15
2018-05-14T15:36:46.525Z,30.16
2018-05-14T15:37:27.904Z,29.95
2018-05-14T15:38:47.458Z,29.99
2018-05-14T15:39:26.404Z,29.91
2018-05-14T15:40:26.405Z,29.42
2018-05-14T15:41:26.993Z,29.51
2018-05-14T15:42:40.902Z,29.03
2018-05-14T15:43:26.343Z,29.07
2018-05-14T15:44:47.906Z,28.92
2018-05-14T15:45:27.402Z,29.15
2018-05-14T15:46:27.574Z,28.91
2018-05-14T15:47:27.402Z,28.80
2018-05-14T15:48:27.403Z,28.85
2018-05-14T15:49:53.339Z,28.92
2018-05-14T15:50:27.914Z,28.43
2018-05-14T15:51:27.902Z,28.55
2018-05-14T15:52:27.912Z,28.62
2018-05-14T15:53:28.409Z,28.52
2018-05-14T15:54:28.402Z,28.67
2018-05-14T15:55:49.407Z,28.74
2018-05-14T15:56:28.450Z,28.85
2018-05-14T15:57:55.906Z,28.83
2018-05-14T16:00:06.336Z,28.74
2018-05-14T16:01:00.345Z,28.48
2018-05-14T16:02:21.857Z,28.55
2018-05-14T16:03:00.098Z,28.35
2018-05-14T16:04:00.851Z,28.52
2018-05-14T16:05:21.327Z,28.51
2018-05-14T16:06:01.351Z,28.57
2018-05-14T16:07:21.588Z,28.57
2018-05-14T16:08:23.348Z,28.21
2018-05-14T16:09:22.350Z,28.14
2018-05-14T16:10:22.851Z,27.96
2018-05-14T16:11:01.850Z,28.05
2018-05-14T16:12:01.855Z,27.69
2018-05-14T16:13:01.851Z,27.53
2018-05-14T16:14:03.288Z,27.25
2018-05-14T16:15:02.370Z,27.12
2018-05-14T16:16:02.359Z,26.93
2018-05-14T16:17:02.351Z,26.59
2018-05-14T16:18:02.379Z,26.57
2018-05-14T16:19:02.851Z,26.54
2018-05-14T16:20:27.302Z,26.36
2018-05-14T16:21:02.884Z,26.35
2018-05-14T16:22:04.287Z,26.17
2018-05-14T16:23:24.363Z,26.19
2018-05-14T16:24:03.351Z,26.24
2018-05-14T16:26:36.098Z,26.03
2018-05-14T16:27:56.980Z,26.03
2018-05-14T16:28:36.046Z,25.97
2018-05-14T16:29:37.518Z,25.81
2018-05-14T16:30:36.560Z,25.91
2018-05-14T16:31:57.554Z,25.89
2018-05-14T16:32:36.552Z,25.81
2018-05-14T16:33:36.549Z,25.82
2018-05-14T16:34:36.548Z,25.86
2018-05-14T16:35:37.049Z,25.79
2018-05-14T16:36:37.054Z,25.69
2018-05-14T16:37:37.052Z,25.63
2018-05-14T16:38:37.049Z,25.69
2018-05-14T16:39:37.549Z,25.56
2018-05-14T16:40:37.548Z,25.54
2018-05-14T16:42:01.559Z,25.53
2018-05-14T16:42:37.549Z,25.31
2018-05-14T16:43:38.486Z,25.27
2018-05-14T16:44:40.050Z,25.23
2018-05-14T16:45:38.050Z,25.23
2018-05-14T16:46:37.530Z,25.26
2018-05-14T16:47:40.550Z,25.45
2018-05-14T16:48:37.786Z,25.46
2018-05-14T16:49:38.550Z,25.24
2018-05-14T16:50:38.034Z,25.23
2018-05-14T16:53:10.301Z,25.26
2018-05-14T16:54:16.311Z,25.27
2018-05-14T16:55:13.808Z,25.22
2018-05-14T16:56:10.809Z,25.17
2018-05-14T16:57:10.809Z,25.14
2018-05-14T16:58:33.240Z,25.14
2018-05-14T16:59:11.308Z,25.02
2018-05-14T17:00:10.540Z,24.98
2018-05-14T17:01:31.627Z,25.05
2018-05-14T17:02:10.735Z,24.97
2018-05-14T17:03:11.809Z,24.98
2018-05-14T17:04:32.810Z,24.99
2018-05-14T17:05:11.807Z,24.97
2018-05-14T17:06:11.810Z,24.98
2018-05-14T17:07:12.807Z,25.05
2018-05-14T17:08:12.312Z,24.99
2018-05-14T17:09:12.310Z,24.98
2018-05-14T17:10:12.306Z,25.05
2018-05-14T17:11:12.311Z,24.99
2018-05-14T17:14:05.062Z,24.86
2018-05-14T17:14:44.068Z,24.68
2018-05-14T17:15:44.070Z,24.60
2018-05-14T17:16:44.573Z,24.68
2018-05-14T17:17:43.807Z,24.70
2018-05-14T17:18:44.570Z,24.63
2018-05-14T17:19:44.055Z,24.66
2018-05-14T17:22:15.626Z,24.56
2018-05-14T17:23:16.338Z,24.56
2018-05-14T17:24:16.342Z,24.61
2018-05-14T17:25:16.841Z,24.55
2018-05-14T17:26:16.840Z,24.51
2018-05-14T17:27:19.775Z,24.61
2018-05-14T17:28:16.267Z,24.52
2018-05-14T17:29:18.790Z,24.49
2018-05-14T17:30:16.520Z,24.41
2018-05-14T17:31:17.341Z,24.48
2018-05-14T17:32:18.772Z,24.44
2018-05-14T17:33:17.347Z,24.41
2018-05-14T17:34:17.841Z,24.37
2018-05-14T17:35:17.841Z,24.33
2018-05-14T17:36:17.851Z,24.34
2018-05-14T17:37:18.339Z,24.37
2018-05-14T17:38:39.340Z,24.30
2018-05-14T17:39:18.348Z,24.29
2018-05-14T17:40:18.341Z,24.31
2018-05-14T17:41:17.822Z,24.30
2018-05-14T17:42:39.841Z,24.26
2018-05-14T17:43:18.839Z,24.27
2018-05-14T17:44:18.847Z,24.34
2018-05-14T17:45:18.841Z,24.27
2018-05-14T17:47:50.618Z,24.09
2018-05-14T17:48:50.615Z,23.97